sensor_id;sensor_type;location;lat;lon;timestamp;pressure;altitude;pressure_sealevel;temperature;humidity
15444;BME280;7822;48.146;11.576;2023-01-26T00:01:08;95449.31;;;14.83;64.88
15444;BME280;7822;48.146;11.576;2023-01-26T00:03:36;95442.44;;;14.82;65.29
15444;BME280;7822;48.146;11.576;2023-01-26T00:06:04;95432.84;;;14.82;64.92
15444;BME280;7822;48.146;11.576;2023-01-26T00:08:34;95425.78;;;14.83;65.06
15444;BME280;7822;48.146;11.576;2023-01-26T00:11:03;95428.41;;;14.83;65.34
15444;BME280;7822;48.146;11.576;2023-01-26T00:13:33;95426.78;;;14.82;65.27
15444;BME280;7822;48.146;11.576;2023-01-26T00:16:02;95428.41;;;14.83;65.29
15444;BME280;7822;48.146;11.576;2023-01-26T00:18:30;95426.78;;;14.82;65.06
15444;BME280;7822;48.146;11.576;2023-01-26T00:21:00;95424.16;;;14.82;64.99
15444;BME280;7822;48.146;11.576;2023-01-26T00:23:29;95415.34;;;14.83;65.05
15444;BME280;7822;48.146;11.576;2023-01-26T00:25:57;95412.75;;;14.83;64.88
15444;BME280;7822;48.146;11.576;2023-01-26T00:28:24;95409.31;;;14.82;65.41
15444;BME280;7822;48.146;11.576;2023-01-26T00:31:01;95410.28;;;14.81;65.14
15444;BME280;7822;48.146;11.576;2023-01-26T00:33:29;95410.28;;;14.81;65.38
15444;BME280;7822;48.146;11.576;2023-01-26T00:35:57;95407.50;;;14.83;65.12
15444;BME280;7822;48.146;11.576;2023-01-26T00:38:24;95411.09;;;14.82;65.13
15444;BME280;7822;48.146;11.576;2023-01-26T00:40:52;95411.94;;;14.82;65.03
15444;BME280;7822;48.146;11.576;2023-01-26T00:43:20;95412.06;;;14.81;64.95
15444;BME280;7822;48.146;11.576;2023-01-26T00:45:48;95408.50;;;14.82;64.88
15444;BME280;7822;48.146;11.576;2023-01-26T00:48:17;95406.00;;;14.80;65.27
15444;BME280;7822;48.146;11.576;2023-01-26T00:50:45;95398.16;;;14.80;64.93
15444;BME280;7822;48.146;11.576;2023-01-26T00:53:12;95406.84;;;14.81;65.18
15444;BME280;7822;48.146;11.576;2023-01-26T00:55:40;95404.22;;;14.81;65.19
15444;BME280;7822;48.146;11.576;2023-01-26T00:58:08;95399.16;;;14.79;65.27
15444;BME280;7822;48.146;11.576;2023-01-26T01:00:37;95391.31;;;14.79;65.26
15444;BME280;7822;48.146;11.576;2023-01-26T01:03:05;95395.72;;;14.79;65.22
15444;BME280;7822;48.146;11.576;2023-01-26T01:05:35;95385.41;;;14.77;65.25
15444;BME280;7822;48.146;11.576;2023-01-26T01:08:02;95395.72;;;14.79;65.07
15444;BME280;7822;48.146;11.576;2023-01-26T01:10:30;95390.50;;;14.79;65.08
15444;BME280;7822;48.146;11.576;2023-01-26T01:12:58;95390.50;;;14.79;65.19
15444;BME280;7822;48.146;11.576;2023-01-26T01:15:26;95387.06;;;14.78;65.38
15444;BME280;7822;48.146;11.576;2023-01-26T01:17:53;95390.50;;;14.79;65.23
15444;BME280;7822;48.146;11.576;2023-01-26T01:20:21;95381.97;;;14.77;64.91
15444;BME280;7822;48.146;11.576;2023-01-26T01:22:51;95394.09;;;14.78;65.48
15444;BME280;7822;48.146;11.576;2023-01-26T01:25:18;95392.44;;;14.77;65.43
15444;BME280;7822;48.146;11.576;2023-01-26T01:27:46;95387.22;;;14.77;65.06
15444;BME280;7822;48.146;11.576;2023-01-26T01:30:14;95385.53;;;14.76;65.31
15444;BME280;7822;48.146;11.576;2023-01-26T01:32:42;95391.75;;;14.75;65.30
15444;BME280;7822;48.146;11.576;2023-01-26T01:35:10;95386.38;;;14.76;65.59
15444;BME280;7822;48.146;11.576;2023-01-26T01:37:37;95376.09;;;14.75;65.35
15444;BME280;7822;48.146;11.576;2023-01-26T01:40:10;95386.53;;;14.75;65.52
15444;BME280;7822;48.146;11.576;2023-01-26T01:42:45;95384.75;;;14.75;65.35
15444;BME280;7822;48.146;11.576;2023-01-26T01:45:38;95389.00;;;14.76;65.42
15444;BME280;7822;48.146;11.576;2023-01-26T01:48:12;95396.00;;;14.76;65.21
15444;BME280;7822;48.146;11.576;2023-01-26T01:50:42;95392.56;;;14.75;65.25
15444;BME280;7822;48.146;11.576;2023-01-26T01:53:16;95389.00;;;14.76;65.32
15444;BME280;7822;48.146;11.576;2023-01-26T01:55:53;95384.75;;;14.75;65.25
15444;BME280;7822;48.146;11.576;2023-01-26T01:58:22;95384.75;;;14.75;65.32
15444;BME280;7822;48.146;11.576;2023-01-26T02:00:50;95380.47;;;14.74;65.21
15444;BME280;7822;48.146;11.576;2023-01-26T02:03:18;95386.53;;;14.75;64.94
15444;BME280;7822;48.146;11.576;2023-01-26T02:05:54;95379.66;;;14.74;65.16
15444;BME280;7822;48.146;11.576;2023-01-26T02:08:24;95380.47;;;14.74;65.25
15444;BME280;7822;48.146;11.576;2023-01-26T02:10:57;95377.03;;;14.74;65.07
15444;BME280;7822;48.146;11.576;2023-01-26T02:13:26;95371.97;;;14.72;65.41
15444;BME280;7822;48.146;11.576;2023-01-26T02:15:56;95377.19;;;14.72;65.26
15444;BME280;7822;48.146;11.576;2023-01-26T02:18:25;95374.56;;;14.72;65.35
15444;BME280;7822;48.146;11.576;2023-01-26T02:20:56;95364.97;;;14.73;65.27
15444;BME280;7822;48.146;11.576;2023-01-26T02:23:35;95364.97;;;14.73;65.29
15444;BME280;7822;48.146;11.576;2023-01-26T02:26:12;95360.69;;;14.72;65.29
15444;BME280;7822;48.146;11.576;2023-01-26T02:28:41;95355.47;;;14.72;65.46
15444;BME280;7822;48.146;11.576;2023-01-26T02:31:10;95349.44;;;14.71;65.56
15444;BME280;7822;48.146;11.576;2023-01-26T02:33:39;95355.47;;;14.72;65.30
15444;BME280;7822;48.146;11.576;2023-01-26T02:36:10;95346.84;;;14.71;65.33
15444;BME280;7822;48.146;11.576;2023-01-26T02:38:48;95340.78;;;14.71;65.58
15444;BME280;7822;48.146;11.576;2023-01-26T02:41:19;95332.78;;;14.72;65.39
15444;BME280;7822;48.146;11.576;2023-01-26T02:44:03;95325.13;;;14.71;65.25
15444;BME280;7822;48.146;11.576;2023-01-26T02:46:31;95327.72;;;14.71;65.67
15444;BME280;7822;48.146;11.576;2023-01-26T02:48:58;95329.34;;;14.72;65.31
15444;BME280;7822;48.146;11.576;2023-01-26T02:51:44;95316.31;;;14.72;65.45
15444;BME280;7822;48.146;11.576;2023-01-26T02:54:11;95322.34;;;14.72;65.35
15444;BME280;7822;48.146;11.576;2023-01-26T02:57:01;95318.13;;;14.71;65.40
15444;BME280;7822;48.146;11.576;2023-01-26T02:59:27;95315.50;;;14.71;65.23
15444;BME280;7822;48.146;11.576;2023-01-26T03:01:56;95307.66;;;14.71;65.45
15444;BME280;7822;48.146;11.576;2023-01-26T03:04:24;95310.28;;;14.71;65.55
15444;BME280;7822;48.146;11.576;2023-01-26T03:06:52;95301.47;;;14.72;65.28
15444;BME280;7822;48.146;11.576;2023-01-26T03:09:20;95297.22;;;14.71;65.13
15444;BME280;7822;48.146;11.576;2023-01-26T03:11:47;95292.00;;;14.71;65.36
15444;BME280;7822;48.146;11.576;2023-01-26T03:14:16;95300.78;;;14.70;65.59
15444;BME280;7822;48.146;11.576;2023-01-26T03:16:44;95298.19;;;14.70;65.33
15444;BME280;7822;48.146;11.576;2023-01-26T03:19:13;95299.84;;;14.71;65.47
15444;BME280;7822;48.146;11.576;2023-01-26T03:21:59;95294.63;;;14.71;65.41
15444;BME280;7822;48.146;11.576;2023-01-26T03:24:44;95292.97;;;14.70;65.07
15444;BME280;7822;48.146;11.576;2023-01-26T03:27:35;95298.19;;;14.70;65.35
15444;BME280;7822;48.146;11.576;2023-01-26T03:30:06;95293.78;;;14.71;65.39
15444;BME280;7822;48.146;11.576;2023-01-26T03:32:34;95289.50;;;14.70;65.13
15444;BME280;7822;48.146;11.576;2023-01-26T03:35:02;95292.13;;;14.70;65.59
15444;BME280;7822;48.146;11.576;2023-01-26T03:37:29;95293.91;;;14.69;65.33
15444;BME280;7822;48.146;11.576;2023-01-26T03:40:02;95291.28;;;14.69;65.21
15444;BME280;7822;48.146;11.576;2023-01-26T03:42:47;95287.72;;;14.70;65.65
15444;BME280;7822;48.146;11.576;2023-01-26T03:45:34;95293.78;;;14.71;65.22
15444;BME280;7822;48.146;11.576;2023-01-26T03:48:19;95295.72;;;14.69;65.36
15444;BME280;7822;48.146;11.576;2023-01-26T03:51:05;95293.78;;;14.71;65.35
15444;BME280;7822;48.146;11.576;2023-01-26T03:53:50;95286.06;;;14.69;65.47
15444;BME280;7822;48.146;11.576;2023-01-26T03:56:36;95294.75;;;14.70;65.53
15444;BME280;7822;48.146;11.576;2023-01-26T03:59:05;95280.06;;;14.69;65.16
15444;BME280;7822;48.146;11.576;2023-01-26T04:01:38;95280.84;;;14.69;65.44
15444;BME280;7822;48.146;11.576;2023-01-26T04:04:07;95280.06;;;14.69;65.49
15444;BME280;7822;48.146;11.576;2023-01-26T04:06:52;95289.66;;;14.68;65.24
15444;BME280;7822;48.146;11.576;2023-01-26T04:09:38;95286.22;;;14.68;65.40
15444;BME280;7822;48.146;11.576;2023-01-26T04:12:06;95281.00;;;14.68;65.70
15444;BME280;7822;48.146;11.576;2023-01-26T04:14:35;95282.66;;;14.69;65.55
15444;BME280;7822;48.146;11.576;2023-01-26T04:17:22;95281.00;;;14.68;65.21
15444;BME280;7822;48.146;11.576;2023-01-26T04:20:08;95280.84;;;14.69;65.22
15444;BME280;7822;48.146;11.576;2023-01-26T04:22:54;95272.22;;;14.69;65.25
15444;BME280;7822;48.146;11.576;2023-01-26T04:25:21;95273.34;;;14.66;65.70
15444;BME280;7822;48.146;11.576;2023-01-26T04:27:49;95270.56;;;14.68;65.63
15444;BME280;7822;48.146;11.576;2023-01-26T04:30:18;95267.94;;;14.68;65.49
15444;BME280;7822;48.146;11.576;2023-01-26T04:32:47;95270.56;;;14.68;65.58
15444;BME280;7822;48.146;11.576;2023-01-26T04:35:14;95267.94;;;14.68;65.68
15444;BME280;7822;48.146;11.576;2023-01-26T04:37:42;95267.94;;;14.68;65.46
15444;BME280;7822;48.146;11.576;2023-01-26T04:40:10;95267.13;;;14.67;65.46
15444;BME280;7822;48.146;11.576;2023-01-26T04:42:39;95265.34;;;14.68;65.38
15444;BME280;7822;48.146;11.576;2023-01-26T04:45:09;95261.91;;;14.67;65.56
15444;BME280;7822;48.146;11.576;2023-01-26T04:47:36;95267.28;;;14.66;65.43
15444;BME280;7822;48.146;11.576;2023-01-26T04:50:08;95265.50;;;14.66;65.20
15444;BME280;7822;48.146;11.576;2023-01-26T04:52:36;95268.94;;;14.67;65.43
15444;BME280;7822;48.146;11.576;2023-01-26T04:55:04;95272.34;;;14.67;65.56
15444;BME280;7822;48.146;11.576;2023-01-26T04:57:32;95270.56;;;14.68;65.14
15444;BME280;7822;48.146;11.576;2023-01-26T05:00:00;95268.78;;;14.68;65.36
15444;BME280;7822;48.146;11.576;2023-01-26T05:02:27;95261.78;;;14.69;65.19
15444;BME280;7822;48.146;11.576;2023-01-26T05:04:55;95272.34;;;14.67;65.28
15444;BME280;7822;48.146;11.576;2023-01-26T05:07:24;95272.22;;;14.69;65.60
15444;BME280;7822;48.146;11.576;2023-01-26T05:09:52;95271.38;;;14.68;65.68
15444;BME280;7822;48.146;11.576;2023-01-26T05:12:21;95269.59;;;14.69;65.39
15444;BME280;7822;48.146;11.576;2023-01-26T05:15:00;95273.03;;;14.69;65.14
15444;BME280;7822;48.146;11.576;2023-01-26T05:17:28;95271.25;;;14.70;65.36
15444;BME280;7822;48.146;11.576;2023-01-26T05:19:56;95272.91;;;14.71;65.30
15444;BME280;7822;48.146;11.576;2023-01-26T05:22:25;95272.91;;;14.71;65.47
15444;BME280;7822;48.146;11.576;2023-01-26T05:24:53;95276.34;;;14.71;65.36
15444;BME280;7822;48.146;11.576;2023-01-26T05:27:20;95273.72;;;14.71;65.31
15444;BME280;7822;48.146;11.576;2023-01-26T05:29:49;95273.72;;;14.71;65.01
15444;BME280;7822;48.146;11.576;2023-01-26T05:32:17;95276.34;;;14.71;65.25
15444;BME280;7822;48.146;11.576;2023-01-26T05:34:45;95270.97;;;14.73;65.33
15444;BME280;7822;48.146;11.576;2023-01-26T05:37:13;95269.28;;;14.72;65.20
15444;BME280;7822;48.146;11.576;2023-01-26T05:39:42;95264.06;;;14.72;65.17
15444;BME280;7822;48.146;11.576;2023-01-26T05:42:10;95263.28;;;14.71;65.38
15444;BME280;7822;48.146;11.576;2023-01-26T05:44:38;95268.50;;;14.71;65.04
15444;BME280;7822;48.146;11.576;2023-01-26T05:47:06;95267.66;;;14.71;65.36
15444;BME280;7822;48.146;11.576;2023-01-26T05:49:34;95268.50;;;14.71;65.17
15444;BME280;7822;48.146;11.576;2023-01-26T05:52:07;95268.50;;;14.71;65.41
15444;BME280;7822;48.146;11.576;2023-01-26T05:54:35;95271.13;;;14.71;65.38
15444;BME280;7822;48.146;11.576;2023-01-26T05:57:05;95270.97;;;14.73;65.35
15444;BME280;7822;48.146;11.576;2023-01-26T05:59:33;95268.50;;;14.71;65.34
15444;BME280;7822;48.146;11.576;2023-01-26T06:02:00;95268.50;;;14.71;65.19
15444;BME280;7822;48.146;11.576;2023-01-26T06:04:28;95270.13;;;14.72;65.31
15444;BME280;7822;48.146;11.576;2023-01-26T06:06:58;95283.19;;;14.72;65.34
15444;BME280;7822;48.146;11.576;2023-01-26T06:09:26;95274.53;;;14.72;65.57
15444;BME280;7822;48.146;11.576;2023-01-26T06:11:53;95278.94;;;14.71;65.32
15444;BME280;7822;48.146;11.576;2023-01-26T06:14:22;95280.56;;;14.72;65.46
15444;BME280;7822;48.146;11.576;2023-01-26T06:16:50;95283.19;;;14.72;65.53
15444;BME280;7822;48.146;11.576;2023-01-26T06:19:19;95286.78;;;14.71;65.08
15444;BME280;7822;48.146;11.576;2023-01-26T06:21:47;95288.56;;;14.71;65.22
15444;BME280;7822;48.146;11.576;2023-01-26T06:24:15;95281.56;;;14.71;65.38
15444;BME280;7822;48.146;11.576;2023-01-26T06:26:42;95282.50;;;14.70;65.40
15444;BME280;7822;48.146;11.576;2023-01-26T06:29:10;95267.66;;;14.71;65.51
15444;BME280;7822;48.146;11.576;2023-01-26T06:31:39;95275.50;;;14.71;65.56
15444;BME280;7822;48.146;11.576;2023-01-26T06:34:07;95272.06;;;14.70;65.48
15444;BME280;7822;48.146;11.576;2023-01-26T06:36:36;95273.84;;;14.70;65.60
15444;BME280;7822;48.146;11.576;2023-01-26T06:39:04;95279.06;;;14.70;65.35
15444;BME280;7822;48.146;11.576;2023-01-26T06:41:32;95274.69;;;14.70;65.64
15444;BME280;7822;48.146;11.576;2023-01-26T06:43:59;95271.13;;;14.71;65.24
15444;BME280;7822;48.146;11.576;2023-01-26T06:46:27;95269.47;;;14.70;65.32
15444;BME280;7822;48.146;11.576;2023-01-26T06:48:56;95272.91;;;14.71;65.50
15444;BME280;7822;48.146;11.576;2023-01-26T06:51:45;95268.50;;;14.71;65.60
15444;BME280;7822;48.146;11.576;2023-01-26T06:54:14;95272.75;;;14.72;65.16
15444;BME280;7822;48.146;11.576;2023-01-26T06:56:42;95271.91;;;14.72;65.51
15444;BME280;7822;48.146;11.576;2023-01-26T06:59:09;95266.69;;;14.72;65.33
15444;BME280;7822;48.146;11.576;2023-01-26T07:01:40;95263.28;;;14.71;65.64
15444;BME280;7822;48.146;11.576;2023-01-26T07:04:09;95259.69;;;14.72;65.39
15444;BME280;7822;48.146;11.576;2023-01-26T07:06:37;95269.28;;;14.72;65.67
15444;BME280;7822;48.146;11.576;2023-01-26T07:09:05;95265.88;;;14.71;65.48
15444;BME280;7822;48.146;11.576;2023-01-26T07:11:33;95273.56;;;14.73;65.33
15444;BME280;7822;48.146;11.576;2023-01-26T07:14:00;95270.13;;;14.72;65.63
15444;BME280;7822;48.146;11.576;2023-01-26T07:16:28;95270.13;;;14.72;65.59
15444;BME280;7822;48.146;11.576;2023-01-26T07:18:59;95268.34;;;14.73;65.44
15444;BME280;7822;48.146;11.576;2023-01-26T07:21:28;95269.16;;;14.73;65.43
15444;BME280;7822;48.146;11.576;2023-01-26T07:23:55;95271.78;;;14.73;65.42
15444;BME280;7822;48.146;11.576;2023-01-26T07:26:23;95264.75;;;14.74;65.39
15444;BME280;7822;48.146;11.576;2023-01-26T07:28:51;95266.56;;;14.73;65.31
15444;BME280;7822;48.146;11.576;2023-01-26T07:31:19;95271.63;;;14.75;65.28
15444;BME280;7822;48.146;11.576;2023-01-26T07:33:46;95268.19;;;14.74;65.49
15444;BME280;7822;48.146;11.576;2023-01-26T07:36:14;95262.97;;;14.74;65.66
15444;BME280;7822;48.146;11.576;2023-01-26T07:38:43;95264.63;;;14.75;65.39
15444;BME280;7822;48.146;11.576;2023-01-26T07:41:11;95257.59;;;14.76;65.26
15444;BME280;7822;48.146;11.576;2023-01-26T07:43:39;95261.03;;;14.76;65.32
15444;BME280;7822;48.146;11.576;2023-01-26T07:46:08;95258.56;;;14.75;65.53
15444;BME280;7822;48.146;11.576;2023-01-26T07:48:37;95255.81;;;14.76;65.50
15444;BME280;7822;48.146;11.576;2023-01-26T07:51:07;95260.19;;;14.76;65.39
15444;BME280;7822;48.146;11.576;2023-01-26T07:53:37;95254.97;;;14.76;65.34
15444;BME280;7822;48.146;11.576;2023-01-26T07:56:09;95247.13;;;14.76;65.52
15444;BME280;7822;48.146;11.576;2023-01-26T07:58:37;95252.38;;;14.76;65.43
15444;BME280;7822;48.146;11.576;2023-01-26T08:01:07;95248.13;;;14.75;64.91
15444;BME280;7822;48.146;11.576;2023-01-26T08:03:35;95247.97;;;14.76;65.55
15444;BME280;7822;48.146;11.576;2023-01-26T08:06:03;95242.91;;;14.75;65.45
15444;BME280;7822;48.146;11.576;2023-01-26T08:08:32;95242.91;;;14.75;65.54
15444;BME280;7822;48.146;11.576;2023-01-26T08:11:01;95248.13;;;14.75;65.51
15444;BME280;7822;48.146;11.576;2023-01-26T08:13:30;95250.75;;;14.75;65.57
15444;BME280;7822;48.146;11.576;2023-01-26T08:16:02;95241.25;;;14.74;65.60
15444;BME280;7822;48.146;11.576;2023-01-26T08:18:31;95244.69;;;14.74;65.53
15444;BME280;7822;48.146;11.576;2023-01-26T08:20:58;95246.47;;;14.74;65.49
15444;BME280;7822;48.146;11.576;2023-01-26T08:23:26;95244.69;;;14.74;65.42
15444;BME280;7822;48.146;11.576;2023-01-26T08:25:54;95233.28;;;14.75;65.46
15444;BME280;7822;48.146;11.576;2023-01-26T08:28:27;95231.63;;;14.74;65.35
15444;BME280;7822;48.146;11.576;2023-01-26T08:30:56;95233.41;;;14.74;65.76
15444;BME280;7822;48.146;11.576;2023-01-26T08:33:23;95240.28;;;14.75;65.91
15444;BME280;7822;48.146;11.576;2023-01-26T08:35:51;95230.00;;;14.73;65.80
15444;BME280;7822;48.146;11.576;2023-01-26T08:38:19;95234.25;;;14.74;65.43
15444;BME280;7822;48.146;11.576;2023-01-26T08:40:50;95227.22;;;14.75;65.60
15444;BME280;7822;48.146;11.576;2023-01-26T08:43:19;95229.03;;;14.74;65.78
15444;BME280;7822;48.146;11.576;2023-01-26T08:45:46;95236.84;;;14.74;65.62
15444;BME280;7822;48.146;11.576;2023-01-26T08:48:15;95228.19;;;14.74;65.69
15444;BME280;7822;48.146;11.576;2023-01-26T08:50:43;95235.22;;;14.73;65.74
15444;BME280;7822;48.146;11.576;2023-01-26T08:53:11;95236.03;;;14.74;65.60
15444;BME280;7822;48.146;11.576;2023-01-26T08:55:39;95233.41;;;14.74;65.63
15444;BME280;7822;48.146;11.576;2023-01-26T08:58:06;95238.63;;;14.74;65.53
15444;BME280;7822;48.146;11.576;2023-01-26T09:00:34;95237.00;;;14.73;65.57
15444;BME280;7822;48.146;11.576;2023-01-26T09:03:03;95235.22;;;14.73;66.04
15444;BME280;7822;48.146;11.576;2023-01-26T09:05:35;95240.56;;;14.72;65.53
15444;BME280;7822;48.146;11.576;2023-01-26T09:08:04;95238.78;;;14.72;65.46
15444;BME280;7822;48.146;11.576;2023-01-26T09:10:32;95230.97;;;14.72;65.78
15444;BME280;7822;48.146;11.576;2023-01-26T09:13:00;95238.63;;;14.74;65.60
15444;BME280;7822;48.146;11.576;2023-01-26T09:15:27;95236.19;;;14.72;65.71
15444;BME280;7822;48.146;11.576;2023-01-26T09:17:55;95231.94;;;14.71;65.45
15444;BME280;7822;48.146;11.576;2023-01-26T09:20:26;95235.22;;;14.73;65.53
15444;BME280;7822;48.146;11.576;2023-01-26T09:22:55;95232.75;;;14.72;66.01
15444;BME280;7822;48.146;11.576;2023-01-26T09:25:22;95238.78;;;14.72;65.75
15444;BME280;7822;48.146;11.576;2023-01-26T09:27:50;95239.63;;;14.73;65.67
15444;BME280;7822;48.146;11.576;2023-01-26T09:30:18;95237.16;;;14.71;65.64
15444;BME280;7822;48.146;11.576;2023-01-26T09:32:46;95237.97;;;14.72;65.81
15444;BME280;7822;48.146;11.576;2023-01-26T09:35:13;95247.63;;;14.71;65.71
15444;BME280;7822;48.146;11.576;2023-01-26T09:37:42;95240.56;;;14.72;65.76
15444;BME280;7822;48.146;11.576;2023-01-26T09:40:16;95240.56;;;14.72;65.86
15444;BME280;7822;48.146;11.576;2023-01-26T09:42:57;95237.16;;;14.71;65.92
15444;BME280;7822;48.146;11.576;2023-01-26T09:45:30;95245.78;;;14.72;65.82
15444;BME280;7822;48.146;11.576;2023-01-26T09:48:11;95249.25;;;14.72;65.82
15444;BME280;7822;48.146;11.576;2023-01-26T09:50:45;95243.19;;;14.72;65.74
15444;BME280;7822;48.146;11.576;2023-01-26T09:53:18;95249.41;;;14.71;65.65
15444;BME280;7822;48.146;11.576;2023-01-26T09:55:50;95241.56;;;14.71;65.77
15444;BME280;7822;48.146;11.576;2023-01-26T09:58:27;95241.56;;;14.71;66.07
15444;BME280;7822;48.146;11.576;2023-01-26T10:01:00;95239.78;;;14.71;65.82
15444;BME280;7822;48.146;11.576;2023-01-26T10:03:33;95239.91;;;14.70;65.81
15444;BME280;7822;48.146;11.576;2023-01-26T10:06:12;95233.72;;;14.71;65.76
15444;BME280;7822;48.146;11.576;2023-01-26T10:08:43;95229.47;;;14.70;65.81
15444;BME280;7822;48.146;11.576;2023-01-26T10:11:17;95235.50;;;14.70;65.64
15444;BME280;7822;48.146;11.576;2023-01-26T10:13:50;95232.06;;;14.70;65.82
15444;BME280;7822;48.146;11.576;2023-01-26T10:16:21;95226.84;;;14.70;66.04
15444;BME280;7822;48.146;11.576;2023-01-26T10:18:53;95226.84;;;14.70;65.88
15444;BME280;7822;48.146;11.576;2023-01-26T10:21:24;95225.22;;;14.69;65.70
15444;BME280;7822;48.146;11.576;2023-01-26T10:23:56;95226.03;;;14.69;65.90
15444;BME280;7822;48.146;11.576;2023-01-26T10:26:30;95228.63;;;14.69;65.75
15444;BME280;7822;48.146;11.576;2023-01-26T10:28:57;95224.22;;;14.70;65.80
15444;BME280;7822;48.146;11.576;2023-01-26T10:31:27;95231.25;;;14.69;65.73
15444;BME280;7822;48.146;11.576;2023-01-26T10:33:58;95223.28;;;14.71;66.03
15444;BME280;7822;48.146;11.576;2023-01-26T10:36:28;95221.63;;;14.70;65.80
15444;BME280;7822;48.146;11.576;2023-01-26T10:39:03;95213.78;;;14.70;65.75
15444;BME280;7822;48.146;11.576;2023-01-26T10:41:33;95217.38;;;14.69;65.78
15444;BME280;7822;48.146;11.576;2023-01-26T10:44:03;95213.78;;;14.70;65.97
15444;BME280;7822;48.146;11.576;2023-01-26T10:46:45;95212.97;;;14.69;65.83
15444;BME280;7822;48.146;11.576;2023-01-26T10:49:15;95209.56;;;14.69;65.90
15444;BME280;7822;48.146;11.576;2023-01-26T10:51:44;95205.13;;;14.69;65.88
15444;BME280;7822;48.146;11.576;2023-01-26T10:54:16;95214.78;;;14.69;66.08
15444;BME280;7822;48.146;11.576;2023-01-26T10:56:48;95221.63;;;14.70;65.77
15444;BME280;7822;48.146;11.576;2023-01-26T10:59:24;95211.19;;;14.70;65.83
15444;BME280;7822;48.146;11.576;2023-01-26T11:01:54;95206.13;;;14.68;65.95
15444;BME280;7822;48.146;11.576;2023-01-26T11:04:23;95205.28;;;14.68;65.97
15444;BME280;7822;48.146;11.576;2023-01-26T11:06:52;95200.91;;;14.68;65.91
15444;BME280;7822;48.146;11.576;2023-01-26T11:09:26;95195.66;;;14.68;66.13
15444;BME280;7822;48.146;11.576;2023-01-26T11:11:57;95195.66;;;14.68;65.78
15444;BME280;7822;48.146;11.576;2023-01-26T11:14:26;95200.91;;;14.68;65.61
15444;BME280;7822;48.146;11.576;2023-01-26T11:16:59;95200.91;;;14.68;65.82
15444;BME280;7822;48.146;11.576;2023-01-26T11:19:46;95189.63;;;14.68;65.88
15444;BME280;7822;48.146;11.576;2023-01-26T11:22:18;95185.38;;;14.67;66.14
15444;BME280;7822;48.146;11.576;2023-01-26T11:24:56;95193.06;;;14.68;66.02
15444;BME280;7822;48.146;11.576;2023-01-26T11:27:37;95195.66;;;14.68;65.71
15444;BME280;7822;48.146;11.576;2023-01-26T11:30:46;95195.50;;;14.70;65.90
15444;BME280;7822;48.146;11.576;2023-01-26T11:33:25;95197.44;;;14.68;65.92
15444;BME280;7822;48.146;11.576;2023-01-26T11:36:00;95197.28;;;14.69;65.89
15444;BME280;7822;48.146;11.576;2023-01-26T11:38:38;95195.66;;;14.68;66.05
15444;BME280;7822;48.146;11.576;2023-01-26T11:41:18;95192.06;;;14.69;65.84
15444;BME280;7822;48.146;11.576;2023-01-26T11:47:05;95186.06;;;14.69;65.78
15444;BME280;7822;48.146;11.576;2023-01-26T11:49:50;95185.22;;;14.68;66.17
15444;BME280;7822;48.146;11.576;2023-01-26T11:52:30;95185.22;;;14.68;65.94
15444;BME280;7822;48.146;11.576;2023-01-26T11:55:15;95186.06;;;14.69;65.75
15444;BME280;7822;48.146;11.576;2023-01-26T11:57:55;95185.22;;;14.68;65.98
15444;BME280;7822;48.146;11.576;2023-01-26T12:00:35;95184.25;;;14.69;65.96
15444;BME280;7822;48.146;11.576;2023-01-26T12:03:05;95176.56;;;14.68;65.86
15444;BME280;7822;48.146;11.576;2023-01-26T12:05:42;95180.84;;;14.69;65.98
15444;BME280;7822;48.146;11.576;2023-01-26T12:08:14;95177.41;;;14.68;65.93
15444;BME280;7822;48.146;11.576;2023-01-26T12:10:49;95169.56;;;14.68;66.10
15444;BME280;7822;48.146;11.576;2023-01-26T12:13:22;95171.34;;;14.68;65.75
15444;BME280;7822;48.146;11.576;2023-01-26T12:16:00;95173.78;;;14.69;66.19
15444;BME280;7822;48.146;11.576;2023-01-26T12:18:35;95165.97;;;14.69;66.02
15444;BME280;7822;48.146;11.576;2023-01-26T12:21:25;95166.78;;;14.70;66.04
15444;BME280;7822;48.146;11.576;2023-01-26T12:23:57;95161.56;;;14.70;66.01
15444;BME280;7822;48.146;11.576;2023-01-26T12:26:31;95162.41;;;14.70;66.06
15444;BME280;7822;48.146;11.576;2023-01-26T12:29:03;95161.44;;;14.71;66.03
15444;BME280;7822;48.146;11.576;2023-01-26T12:31:40;95153.59;;;14.71;65.94
15444;BME280;7822;48.146;11.576;2023-01-26T12:34:10;95157.19;;;14.70;66.02
15444;BME280;7822;48.146;11.576;2023-01-26T12:36:43;95161.44;;;14.71;66.08
15444;BME280;7822;48.146;11.576;2023-01-26T12:39:19;95148.38;;;14.71;65.74
15444;BME280;7822;48.146;11.576;2023-01-26T12:42:00;95151.00;;;14.71;65.74
15444;BME280;7822;48.146;11.576;2023-01-26T12:44:34;95151.00;;;14.71;65.75
15444;BME280;7822;48.146;11.576;2023-01-26T12:47:10;95148.38;;;14.71;65.79
15444;BME280;7822;48.146;11.576;2023-01-26T12:49:47;95154.41;;;14.72;65.78
15444;BME280;7822;48.146;11.576;2023-01-26T12:52:20;95147.56;;;14.71;65.80
15444;BME280;7822;48.146;11.576;2023-01-26T12:54:54;95150.16;;;14.71;65.87
15444;BME280;7822;48.146;11.576;2023-01-26T12:57:28;95152.78;;;14.71;65.94
15444;BME280;7822;48.146;11.576;2023-01-26T13:00:04;95160.63;;;14.71;66.11
15444;BME280;7822;48.146;11.576;2023-01-26T13:02:35;95154.41;;;14.72;65.99
15444;BME280;7822;48.146;11.576;2023-01-26T13:05:04;95164.84;;;14.72;65.77
15444;BME280;7822;48.146;11.576;2023-01-26T13:07:34;95150.16;;;14.71;65.86
15444;BME280;7822;48.146;11.576;2023-01-26T13:10:34;95150.16;;;14.71;65.91
15444;BME280;7822;48.146;11.576;2023-01-26T13:13:29;95145.91;;;14.70;65.95
15444;BME280;7822;48.146;11.576;2023-01-26T13:16:31;95143.28;;;14.70;65.98
15444;BME280;7822;48.146;11.576;2023-01-26T13:19:01;95138.91;;;14.70;65.85
15444;BME280;7822;48.146;11.576;2023-01-26T13:21:41;95143.97;;;14.72;65.84
15444;BME280;7822;48.146;11.576;2023-01-26T13:24:40;95146.72;;;14.70;66.02
15444;BME280;7822;48.146;11.576;2023-01-26T13:27:27;95148.38;;;14.71;65.86